Darstellungsparameter: Aktuell verwendete Einstellungen:
Skalierung der Graphiken ... ?
xyx+y,   Skalierungsfaktor:      Skalierung: Modus: x, Faktor: 1
Darstellungszeitraum ... ?
Vom - - bis: - -   Zeitraum: 20.01.2022 - 20.01.2022
Min/Max/Avg-Anzeige ... ?
Zeige MMA aktuell
Zeige MMA Monat
Zeige MMA alles
Zeige --A aktuell
Zeige --A Monat
Zeige --A alles
Keine MMA-Anzeige
MMA:
Keine MMA-Graphiken
MMA-Basis: 20.01.2022 - 20.01.2022
Quicknavigation für Darstellung... ?
Tage:      1T, 2T, 3T, 5T -1T -2T -3T -5T +1T +2T +3T +5T
Wochen: 1W, 2W, 3W -1W -2W -3W +1W +2W +3W
Monate: 1M, 3M, 6M -1M -3M -6M +1M +3M +6M
Jahre:    1J, 3J, 5J, 10J -1J -3J -5J -10J +1J +3J +5J +10J
Nutze für die Darstellung ... ?
Originaldaten oder Mittelwerte auf ...
Stundenbasis Tagesbasis Wochenbasis
Monatsbasis Jahresbasis      Datenbasis: Original-Daten
Darstellen als:
Statistik (Auto) Statistik J:M      Darstellung:
Zur Graphik,    zurück zur Übersicht aller Sensoren.
 
Tabellarische Datenbersicht: ?
 
Sensor: Nr:Datum:Temp:Abs-Feuchte:Windchill:Wind:
Aussen-T/F 1 20-01-2022 01:00:00 4.5 C 6.24 g/m*3 2.52 C 8.1 km/h
2 20-01-2022 01:05:00 4.5 C 6.24 g/m*3 4.5 C 4.8 km/h
3 20-01-2022 01:10:00 4.4 C 6.2 g/m*3 4.4 C 1.6 km/h
4 20-01-2022 01:15:00 4.4 C 6.14 g/m*3 4.4 C 1.6 km/h
5 20-01-2022 01:20:00 4.4 C 6.2 g/m*3 4.4 C 3.2 km/h
6 20-01-2022 01:25:00 4.4 C 6.2 g/m*3 4.4 C 3.2 km/h
7 20-01-2022 01:30:00 4.3 C 6.16 g/m*3 4.3 C 4.8 km/h
8 20-01-2022 01:35:00 4.3 C 6.16 g/m*3 2.78 C 6.4 km/h
9 20-01-2022 01:40:00 4.4 C 6.2 g/m*3 2.9 C 6.4 km/h
10 20-01-2022 01:45:00 4.4 C 6.2 g/m*3 4.4 C 4.8 km/h
11 20-01-2022 01:50:00 4.4 C 6.2 g/m*3 4.4 C 4.8 km/h
12 20-01-2022 01:55:00 4.4 C 6.2 g/m*3 2.9 C 6.4 km/h
13 20-01-2022 02:00:00 4.4 C 6.2 g/m*3 2.9 C 6.4 km/h
14 20-01-2022 02:05:00 4.4 C 6.2 g/m*3 2.4 C 8.1 km/h
15 20-01-2022 02:10:00 4.4 C 6.2 g/m*3 2.9 C 6.4 km/h
16 20-01-2022 02:15:00 4.4 C 6.2 g/m*3 2.01 C 9.7 km/h
17 20-01-2022 02:20:00 4.4 C 6.2 g/m*3 2.4 C 8.1 km/h
18 20-01-2022 02:25:00 4.3 C 6.16 g/m*3 2.29 C 8.1 km/h
19 20-01-2022 02:30:00 4.2 C 6.12 g/m*3 1.77 C 9.7 km/h
20 20-01-2022 02:35:00 4.2 C 6.12 g/m*3 4.2 C 4.8 km/h
21 20-01-2022 02:40:00 4.2 C 6.12 g/m*3 4.2 C 3.2 km/h
22 20-01-2022 02:45:00 4.2 C 6.12 g/m*3 2.67 C 6.4 km/h
23 20-01-2022 02:50:00 4.1 C 6.08 g/m*3 2.05 C 8.1 km/h
24 20-01-2022 02:55:00 4.1 C 6.08 g/m*3 2.05 C 8.1 km/h
25 20-01-2022 03:00:00 4.1 C 6.08 g/m*3 1.31 C 11.3 km/h
Sensor: Nr:Datum:Temp:Abs-Feuchte:Windchill:Wind:
Aussen-T/F 26 20-01-2022 03:05:00 4.1 C 6.02 g/m*3 4.1 C 1.6 km/h
27 20-01-2022 03:10:00 3.9 C 5.94 g/m*3 3.9 C 0 km/h
28 20-01-2022 03:15:00 3.8 C 5.9 g/m*3 3.8 C 0 km/h
29 20-01-2022 03:20:00 3.7 C 5.86 g/m*3 1.58 C 8.1 km/h
30 20-01-2022 03:25:00 3.6 C 5.82 g/m*3 1.98 C 6.4 km/h
31 20-01-2022 03:30:00 3.7 C 5.92 g/m*3 0.82 C 11.3 km/h
32 20-01-2022 03:35:00 3.8 C 5.96 g/m*3 2.21 C 6.4 km/h
33 20-01-2022 03:40:00 3.8 C 5.96 g/m*3 2.21 C 6.4 km/h
34 20-01-2022 03:45:00 3.9 C 6 g/m*3 3.9 C 4.8 km/h
35 20-01-2022 03:50:00 3.9 C 6 g/m*3 3.9 C 4.8 km/h
36 20-01-2022 03:55:00 3.9 C 6 g/m*3 3.9 C 3.2 km/h
37 20-01-2022 04:00:00 3.9 C 6 g/m*3 2.32 C 6.4 km/h
38 20-01-2022 04:05:00 3.9 C 6 g/m*3 3.9 C 4.8 km/h
39 20-01-2022 04:10:00 3.9 C 6 g/m*3 3.9 C 3.2 km/h
40 20-01-2022 04:15:00 3.9 C 6 g/m*3 3.9 C 4.8 km/h
41 20-01-2022 04:20:00 3.9 C 6 g/m*3 3.9 C 4.8 km/h
42 20-01-2022 04:25:00 4 C 6.04 g/m*3 1.93 C 8.1 km/h
43 20-01-2022 04:30:00 4.1 C 6.08 g/m*3 1.65 C 9.7 km/h
44 20-01-2022 04:35:00 4.1 C 6.02 g/m*3 2.55 C 6.4 km/h
45 20-01-2022 04:40:00 4.2 C 6.06 g/m*3 1.43 C 11.3 km/h
46 20-01-2022 04:45:00 4.2 C 6.06 g/m*3 2.17 C 8.1 km/h
47 20-01-2022 04:50:00 4.2 C 6.06 g/m*3 2.17 C 8.1 km/h
48 20-01-2022 04:55:00 4.2 C 6.06 g/m*3 4.2 C 4.8 km/h
49 20-01-2022 05:00:00 4.2 C 5.99 g/m*3 2.17 C 8.1 km/h
50 20-01-2022 05:05:00 4.1 C 5.95 g/m*3 1.65 C 9.7 km/h
Sensor: Nr:Datum:Temp:Abs-Feuchte:Windchill:Wind:
Aussen-T/F 51 20-01-2022 05:10:00 4.1 C 5.95 g/m*3 1.65 C 9.7 km/h
52 20-01-2022 05:15:00 4.1 C 5.95 g/m*3 4.1 C 4.8 km/h
53 20-01-2022 05:20:00 4.2 C 5.99 g/m*3 1.77 C 9.7 km/h
54 20-01-2022 05:25:00 4.2 C 5.99 g/m*3 2.67 C 6.4 km/h
55 20-01-2022 05:30:00 4.2 C 5.93 g/m*3 1.77 C 9.7 km/h
56 20-01-2022 05:35:00 4.2 C 5.93 g/m*3 4.2 C 4.8 km/h
57 20-01-2022 05:40:00 4.1 C 5.95 g/m*3 2.55 C 6.4 km/h
58 20-01-2022 05:45:00 4.1 C 5.95 g/m*3 2.55 C 6.4 km/h
59 20-01-2022 05:50:00 4.1 C 5.95 g/m*3 2.55 C 6.4 km/h
60 20-01-2022 05:55:00 4.1 C 5.95 g/m*3 2.05 C 8.1 km/h
61 20-01-2022 06:00:00 4.1 C 5.95 g/m*3 1.65 C 9.7 km/h
62 20-01-2022 06:05:00 4.1 C 5.95 g/m*3 2.05 C 8.1 km/h
63 20-01-2022 06:10:00 4.1 C 5.95 g/m*3 1.31 C 11.3 km/h
64 20-01-2022 06:15:00 4.2 C 5.93 g/m*3 1.43 C 11.3 km/h
65 20-01-2022 06:20:00 4.2 C 5.93 g/m*3 1.43 C 11.3 km/h
66 20-01-2022 06:25:00 4.2 C 5.93 g/m*3 1.43 C 11.3 km/h
67 20-01-2022 06:30:00 4.3 C 5.97 g/m*3 1.24 C 12.9 km/h
68 20-01-2022 06:35:00 4.3 C 5.97 g/m*3 0.72 C 16.1 km/h
69 20-01-2022 06:40:00 4.3 C 5.97 g/m*3 0.72 C 16.1 km/h
70 20-01-2022 06:45:00 4.3 C 5.97 g/m*3 1.89 C 9.7 km/h
71 20-01-2022 06:50:00 4.3 C 5.97 g/m*3 2.29 C 8.1 km/h
72 20-01-2022 06:55:00 4.3 C 5.97 g/m*3 1.55 C 11.3 km/h
73 20-01-2022 07:00:00 4.3 C 5.97 g/m*3 2.29 C 8.1 km/h
74 20-01-2022 07:05:00 4.2 C 5.93 g/m*3 0.59 C 16.1 km/h
75 20-01-2022 07:10:00 4.2 C 5.93 g/m*3 0.84 C 14.5 km/h
Sensor: Nr:Datum:Temp:Abs-Feuchte:Windchill:Wind:
Aussen-T/F 76 20-01-2022 07:15:00 4.2 C 5.93 g/m*3 2.67 C 6.4 km/h
77 20-01-2022 07:20:00 4.2 C 5.93 g/m*3 1.77 C 9.7 km/h
78 20-01-2022 07:25:00 4.1 C 5.89 g/m*3 4.1 C 4.8 km/h
79 20-01-2022 07:30:00 4.1 C 5.89 g/m*3 1 C 12.9 km/h
80 20-01-2022 07:35:00 4.1 C 5.89 g/m*3 1.31 C 11.3 km/h
81 20-01-2022 07:40:00 4.2 C 5.93 g/m*3 1.43 C 11.3 km/h
82 20-01-2022 07:45:00 4.2 C 5.93 g/m*3 1.43 C 11.3 km/h
83 20-01-2022 07:50:00 4.2 C 5.93 g/m*3 1.43 C 11.3 km/h
84 20-01-2022 07:55:00 4.2 C 5.93 g/m*3 1.12 C 12.9 km/h
85 20-01-2022 08:00:00 4.3 C 5.97 g/m*3 2.78 C 6.4 km/h
86 20-01-2022 08:05:00 4.3 C 5.97 g/m*3 0.97 C 14.5 km/h
87 20-01-2022 08:10:00 4.3 C 5.97 g/m*3 0.49 C 17.7 km/h
88 20-01-2022 08:15:00 4.4 C 5.94 g/m*3 0.84 C 16.1 km/h
89 20-01-2022 08:20:00 4.5 C 5.98 g/m*3 1.48 C 12.9 km/h
90 20-01-2022 08:25:00 4.5 C 5.98 g/m*3 1.48 C 12.9 km/h
91 20-01-2022 08:30:00 4.6 C 5.96 g/m*3 1.09 C 16.1 km/h
92 20-01-2022 08:35:00 4.6 C 5.96 g/m*3 1.09 C 16.1 km/h
93 20-01-2022 08:40:00 4.6 C 5.96 g/m*3 0.45 C 20.9 km/h
94 20-01-2022 08:45:00 4.6 C 5.96 g/m*3 -0.23 C 27.4 km/h
95 20-01-2022 08:50:00 4.4 C 5.88 g/m*3 0.01 C 22.5 km/h
96 20-01-2022 08:55:00 4.3 C 5.84 g/m*3 0.27 C 19.3 km/h
97 20-01-2022 09:00:00 4.2 C 5.8 g/m*3 1.12 C 12.9 km/h
98 20-01-2022 09:05:00 4.1 C 5.76 g/m*3 0.47 C 16.1 km/h
99 20-01-2022 09:10:00 4 C 5.72 g/m*3 1.53 C 9.7 km/h
100 20-01-2022 09:15:00 3.9 C 5.68 g/m*3 1.06 C 11.3 km/h
Sensor: Nr:Datum:Temp:Abs-Feuchte:Windchill:Wind:
Aussen-T/F 101 20-01-2022 09:20:00 3.9 C 5.68 g/m*3 2.32 C 6.4 km/h
102 20-01-2022 09:25:00 3.9 C 5.68 g/m*3 0.47 C 14.5 km/h
103 20-01-2022 09:30:00 3.8 C 5.58 g/m*3 0.63 C 12.9 km/h
104 20-01-2022 09:35:00 3.8 C 5.58 g/m*3 2.21 C 6.4 km/h
105 20-01-2022 09:40:00 3.8 C 5.58 g/m*3 2.21 C 6.4 km/h
106 20-01-2022 09:45:00 3.8 C 5.52 g/m*3 0.1 C 16.1 km/h
107 20-01-2022 09:50:00 3.8 C 5.52 g/m*3 3.8 C 3.2 km/h
108 20-01-2022 09:55:00 3.8 C 5.52 g/m*3 1.29 C 9.7 km/h
109 20-01-2022 10:00:00 3.8 C 5.58 g/m*3 3.8 C 3.2 km/h
110 20-01-2022 10:05:00 3.8 C 5.58 g/m*3 3.8 C 4.8 km/h
111 20-01-2022 10:10:00 3.9 C 5.62 g/m*3 0.75 C 12.9 km/h
112 20-01-2022 10:15:00 3.9 C 5.62 g/m*3 3.9 C 4.8 km/h
113 20-01-2022 10:20:00 3.9 C 5.62 g/m*3 1.06 C 11.3 km/h
114 20-01-2022 10:25:00 3.9 C 5.62 g/m*3 2.32 C 6.4 km/h
115 20-01-2022 10:30:00 3.9 C 5.62 g/m*3 1.41 C 9.7 km/h
116 20-01-2022 10:35:00 3.9 C 5.62 g/m*3 1.41 C 9.7 km/h
117 20-01-2022 10:40:00 3.9 C 5.62 g/m*3 2.32 C 6.4 km/h
118 20-01-2022 10:45:00 4 C 5.66 g/m*3 0.88 C 12.9 km/h
119 20-01-2022 10:50:00 4 C 5.66 g/m*3 1.93 C 8.1 km/h
120 20-01-2022 10:55:00 3.9 C 5.56 g/m*3 1.41 C 9.7 km/h
121 20-01-2022 11:00:00 3.9 C 5.56 g/m*3 2.32 C 6.4 km/h
122 20-01-2022 11:05:00 3.9 C 5.56 g/m*3 1.41 C 9.7 km/h
123 20-01-2022 11:10:00 3.9 C 5.49 g/m*3 0.75 C 12.9 km/h
124 20-01-2022 11:15:00 3.9 C 5.49 g/m*3 1.41 C 9.7 km/h
125 20-01-2022 11:20:00 3.9 C 5.49 g/m*3 2.32 C 6.4 km/h
Sensor: Nr:Datum:Temp:Abs-Feuchte:Windchill:Wind:
Aussen-T/F 126 20-01-2022 11:25:00 3.8 C 5.46 g/m*3 3.8 C 4.8 km/h
127 20-01-2022 11:30:00 3.8 C 5.46 g/m*3 1.29 C 9.7 km/h
128 20-01-2022 11:35:00 3.8 C 5.4 g/m*3 0.94 C 11.3 km/h
129 20-01-2022 11:40:00 3.8 C 5.4 g/m*3 1.7 C 8.1 km/h
130 20-01-2022 11:45:00 3.9 C 5.37 g/m*3 0.47 C 14.5 km/h
131 20-01-2022 11:50:00 3.9 C 5.37 g/m*3 2.32 C 6.4 km/h
132 20-01-2022 11:55:00 4 C 5.4 g/m*3 1.53 C 9.7 km/h
133 20-01-2022 12:00:00 3.9 C 5.43 g/m*3 1.06 C 11.3 km/h
134 20-01-2022 12:05:00 3.9 C 5.49 g/m*3 2.32 C 6.4 km/h
135 20-01-2022 12:10:00 3.9 C 5.49 g/m*3 1.06 C 11.3 km/h
136 20-01-2022 12:15:00 4 C 5.53 g/m*3 1.93 C 8.1 km/h
137 20-01-2022 12:20:00 4.1 C 5.5 g/m*3 0.24 C 17.7 km/h
138 20-01-2022 12:25:00 4.2 C 5.48 g/m*3 1.77 C 9.7 km/h
139 20-01-2022 12:30:00 4.2 C 5.41 g/m*3 0.59 C 16.1 km/h
140 20-01-2022 12:35:00 4.2 C 5.48 g/m*3 1.77 C 9.7 km/h
141 20-01-2022 12:40:00 4.2 C 5.35 g/m*3 0.84 C 14.5 km/h
142 20-01-2022 12:45:00 4.2 C 5.35 g/m*3 1.12 C 12.9 km/h
143 20-01-2022 12:50:00 4.2 C 5.28 g/m*3 0.59 C 16.1 km/h
144 20-01-2022 12:55:00 4.3 C 5.32 g/m*3 1.55 C 11.3 km/h
145 20-01-2022 13:00:00 4.3 C 5.25 g/m*3 1.24 C 12.9 km/h
146 20-01-2022 13:05:00 4.4 C 5.16 g/m*3 0.61 C 17.7 km/h
147 20-01-2022 13:10:00 4.4 C 5.09 g/m*3 0.4 C 19.3 km/h
148 20-01-2022 13:15:00 4.6 C 5.16 g/m*3 1.91 C 11.3 km/h
149 20-01-2022 13:20:00 4.6 C 5.1 g/m*3 1.09 C 16.1 km/h
150 20-01-2022 13:25:00 4.6 C 5.16 g/m*3 1.34 C 14.5 km/h
Sensor: Nr:Datum:Temp:Abs-Feuchte:Windchill:Wind:
Aussen-T/F 151 20-01-2022 13:30:00 4.6 C 5.16 g/m*3 1.09 C 16.1 km/h
152 20-01-2022 13:35:00 4.6 C 5.1 g/m*3 1.09 C 16.1 km/h
153 20-01-2022 13:40:00 4.6 C 5.16 g/m*3 1.91 C 11.3 km/h
154 20-01-2022 13:45:00 4.6 C 5.03 g/m*3 -0.23 C 27.4 km/h
155 20-01-2022 13:50:00 4.5 C 5.06 g/m*3 1.79 C 11.3 km/h
156 20-01-2022 13:55:00 4.4 C 5.09 g/m*3 1.09 C 14.5 km/h
157 20-01-2022 14:00:00 4.3 C 5.06 g/m*3 1.89 C 9.7 km/h
158 20-01-2022 14:05:00 4.2 C 5.09 g/m*3 0.36 C 17.7 km/h
159 20-01-2022 14:10:00 4.1 C 5.12 g/m*3 -0.37 C 22.5 km/h
160 20-01-2022 14:15:00 4 C 5.15 g/m*3 0.88 C 12.9 km/h
161 20-01-2022 14:20:00 3.9 C 5.18 g/m*3 1.82 C 8.1 km/h
162 20-01-2022 14:25:00 3.9 C 5.18 g/m*3 1.41 C 9.7 km/h
163 20-01-2022 14:30:00 3.8 C 5.14 g/m*3 0.1 C 16.1 km/h
164 20-01-2022 14:35:00 3.8 C 5.14 g/m*3 -0.75 C 22.5 km/h
165 20-01-2022 14:40:00 3.7 C 5.17 g/m*3 0.23 C 14.5 km/h
166 20-01-2022 14:45:00 3.7 C 5.17 g/m*3 0.23 C 14.5 km/h
167 20-01-2022 14:50:00 3.6 C 5.14 g/m*3 0.39 C 12.9 km/h
168 20-01-2022 14:55:00 3.6 C 5.08 g/m*3 1.46 C 8.1 km/h
169 20-01-2022 15:00:00 3.5 C 5.04 g/m*3 0.27 C 12.9 km/h
170 20-01-2022 15:05:00 3.5 C 5.04 g/m*3 0.27 C 12.9 km/h
171 20-01-2022 15:10:00 3.6 C 5.08 g/m*3 1.06 C 9.7 km/h
172 20-01-2022 15:15:00 3.7 C 5.11 g/m*3 0.23 C 14.5 km/h
173 20-01-2022 15:20:00 3.7 C 5.11 g/m*3 1.18 C 9.7 km/h
174 20-01-2022 15:25:00 3.7 C 5.11 g/m*3 0.82 C 11.3 km/h
175 20-01-2022 15:30:00 3.7 C 5.11 g/m*3 0.82 C 11.3 km/h
Sensor: Nr:Datum:Temp:Abs-Feuchte:Windchill:Wind:
Aussen-T/F 176 20-01-2022 15:35:00 3.7 C 5.11 g/m*3 1.58 C 8.1 km/h
177 20-01-2022 15:40:00 3.7 C 5.11 g/m*3 1.18 C 9.7 km/h
178 20-01-2022 15:45:00 3.7 C 5.11 g/m*3 3.7 C 4.8 km/h
179 20-01-2022 15:50:00 3.7 C 5.11 g/m*3 1.58 C 8.1 km/h
180 20-01-2022 15:55:00 3.7 C 5.17 g/m*3 3.7 C 3.2 km/h
181 20-01-2022 16:00:00 3.7 C 5.11 g/m*3 2.09 C 6.4 km/h
182 20-01-2022 16:05:00 3.7 C 5.17 g/m*3 2.09 C 6.4 km/h
183 20-01-2022 16:10:00 3.7 C 5.17 g/m*3 3.7 C 4.8 km/h
184 20-01-2022 16:15:00 3.7 C 5.23 g/m*3 3.7 C 3.2 km/h
185 20-01-2022 16:20:00 3.6 C 5.2 g/m*3 1.98 C 6.4 km/h
186 20-01-2022 16:25:00 3.5 C 5.16 g/m*3 0.58 C 11.3 km/h
187 20-01-2022 16:30:00 3.4 C 5.19 g/m*3 0.14 C 12.9 km/h
188 20-01-2022 16:35:00 3.3 C 5.22 g/m*3 0.34 C 11.3 km/h
189 20-01-2022 16:40:00 3.1 C 5.21 g/m*3 3.1 C 4.8 km/h
190 20-01-2022 16:45:00 3 C 5.23 g/m*3 3 C 4.8 km/h
191 20-01-2022 16:50:00 2.9 C 5.26 g/m*3 2.9 C 3.2 km/h
192 20-01-2022 16:55:00 2.9 C 5.26 g/m*3 2.9 C 1.6 km/h
193 20-01-2022 17:00:00 2.8 C 5.28 g/m*3 2.8 C 4.8 km/h
194 20-01-2022 17:05:00 2.8 C 5.28 g/m*3 2.8 C 4.8 km/h
195 20-01-2022 17:10:00 2.7 C 5.24 g/m*3 -0.38 C 11.3 km/h
196 20-01-2022 17:15:00 2.8 C 5.28 g/m*3 0.52 C 8.1 km/h
197 20-01-2022 17:20:00 2.8 C 5.28 g/m*3 0.52 C 8.1 km/h
198 20-01-2022 17:25:00 2.8 C 5.22 g/m*3 0.1 C 9.7 km/h
199 20-01-2022 17:30:00 2.9 C 5.14 g/m*3 0.64 C 8.1 km/h
200 20-01-2022 17:35:00 3.1 C 5.09 g/m*3 0.46 C 9.7 km/h
Sensor: Nr:Datum:Temp:Abs-Feuchte:Windchill:Wind:
Aussen-T/F 201 20-01-2022 17:40:00 3.3 C 5.1 g/m*3 -0.52 C 16.1 km/h
202 20-01-2022 17:45:00 3.4 C 5.07 g/m*3 -0.4 C 16.1 km/h
203 20-01-2022 17:50:00 3.6 C 5.08 g/m*3 0.39 C 12.9 km/h
204 20-01-2022 17:55:00 3.6 C 5.01 g/m*3 -0.39 C 17.7 km/h
205 20-01-2022 18:00:00 3.6 C 5.01 g/m*3 1.06 C 9.7 km/h
206 20-01-2022 18:05:00 3.5 C 5.04 g/m*3 1.86 C 6.4 km/h
207 20-01-2022 18:10:00 3.4 C 5.01 g/m*3 0.82 C 9.7 km/h
208 20-01-2022 18:15:00 3.3 C 4.97 g/m*3 1.11 C 8.1 km/h
209 20-01-2022 18:20:00 3.3 C 4.97 g/m*3 3.3 C 4.8 km/h
210 20-01-2022 18:25:00 3.4 C 5.01 g/m*3 3.4 C 4.8 km/h
211 20-01-2022 18:30:00 3.3 C 5.04 g/m*3 1.11 C 8.1 km/h
212 20-01-2022 18:35:00 3.3 C 5.04 g/m*3 1.11 C 8.1 km/h
213 20-01-2022 18:40:00 3.2 C 5 g/m*3 0.22 C 11.3 km/h
214 20-01-2022 18:45:00 3.2 C 5 g/m*3 -0.1 C 12.9 km/h
215 20-01-2022 18:50:00 3.3 C 5.04 g/m*3 0.02 C 12.9 km/h
216 20-01-2022 18:55:00 3.3 C 5.04 g/m*3 0.02 C 12.9 km/h
217 20-01-2022 19:00:00 3.2 C 5 g/m*3 0.22 C 11.3 km/h
218 20-01-2022 19:05:00 3.2 C 5 g/m*3 1.51 C 6.4 km/h
219 20-01-2022 19:10:00 3.2 C 5 g/m*3 1.51 C 6.4 km/h
220 20-01-2022 19:15:00 3.2 C 5.06 g/m*3 0.22 C 11.3 km/h
221 20-01-2022 19:20:00 3.2 C 5.06 g/m*3 0.22 C 11.3 km/h
222 20-01-2022 19:25:00 3.2 C 5.06 g/m*3 1.51 C 6.4 km/h
223 20-01-2022 19:30:00 3.2 C 5.12 g/m*3 -0.39 C 14.5 km/h
224 20-01-2022 19:35:00 3.3 C 5.1 g/m*3 0.34 C 11.3 km/h
225 20-01-2022 19:40:00 3.3 C 5.1 g/m*3 0.02 C 12.9 km/h
Sensor: Nr:Datum:Temp:Abs-Feuchte:Windchill:Wind:
Aussen-T/F 226 20-01-2022 19:45:00 3.3 C 5.16 g/m*3 0.34 C 11.3 km/h
227 20-01-2022 19:50:00 3.3 C 5.16 g/m*3 0.7 C 9.7 km/h
228 20-01-2022 19:55:00 3.3 C 5.16 g/m*3 0.02 C 12.9 km/h
229 20-01-2022 20:00:00 3.2 C 5.12 g/m*3 -0.1 C 12.9 km/h
230 20-01-2022 20:05:00 3.2 C 5.12 g/m*3 -0.1 C 12.9 km/h
231 20-01-2022 20:10:00 3.1 C 5.09 g/m*3 0.1 C 11.3 km/h
232 20-01-2022 20:15:00 3.1 C 5.15 g/m*3 -0.51 C 14.5 km/h
233 20-01-2022 20:20:00 3.1 C 5.15 g/m*3 1.4 C 6.4 km/h
234 20-01-2022 20:25:00 3.1 C 5.15 g/m*3 0.87 C 8.1 km/h
235 20-01-2022 20:30:00 3 C 5.05 g/m*3 3 C 4.8 km/h
236 20-01-2022 20:35:00 3 C 5.11 g/m*3 1.28 C 6.4 km/h
237 20-01-2022 20:40:00 2.9 C 5.02 g/m*3 1.17 C 6.4 km/h
238 20-01-2022 20:45:00 2.9 C 5.02 g/m*3 0.22 C 9.7 km/h
239 20-01-2022 20:50:00 3 C 5.05 g/m*3 -0.02 C 11.3 km/h
240 20-01-2022 20:55:00 3 C 5.05 g/m*3 1.28 C 6.4 km/h
241 20-01-2022 21:00:00 3 C 5.05 g/m*3 0.76 C 8.1 km/h
242 20-01-2022 21:05:00 3 C 5.05 g/m*3 1.28 C 6.4 km/h
243 20-01-2022 21:10:00 3 C 5.05 g/m*3 0.76 C 8.1 km/h
244 20-01-2022 21:15:00 2.9 C 5.08 g/m*3 -0.14 C 11.3 km/h
245 20-01-2022 21:20:00 2.9 C 5.08 g/m*3 -0.46 C 12.9 km/h
246 20-01-2022 21:25:00 2.9 C 5.08 g/m*3 -0.14 C 11.3 km/h
247 20-01-2022 21:30:00 2.8 C 5.04 g/m*3 2.8 C 4.8 km/h
248 20-01-2022 21:35:00 2.8 C 5.04 g/m*3 1.05 C 6.4 km/h
249 20-01-2022 21:40:00 2.8 C 5.04 g/m*3 1.05 C 6.4 km/h
250 20-01-2022 21:45:00 2.8 C 5.04 g/m*3 -0.26 C 11.3 km/h
Sensor: Nr:Datum:Temp:Abs-Feuchte:Windchill:Wind:
Aussen-T/F 251 20-01-2022 21:50:00 2.8 C 5.04 g/m*3 0.1 C 9.7 km/h
252 20-01-2022 21:55:00 2.8 C 5.04 g/m*3 -0.26 C 11.3 km/h
253 20-01-2022 22:00:00 2.8 C 5.04 g/m*3 1.05 C 6.4 km/h
254 20-01-2022 22:05:00 2.8 C 5.04 g/m*3 2.8 C 4.8 km/h
255 20-01-2022 22:10:00 2.8 C 5.1 g/m*3 0.52 C 8.1 km/h
256 20-01-2022 22:15:00 2.8 C 5.1 g/m*3 0.52 C 8.1 km/h
257 20-01-2022 22:20:00 2.8 C 5.1 g/m*3 0.1 C 9.7 km/h
258 20-01-2022 22:25:00 2.8 C 5.1 g/m*3 2.8 C 3.2 km/h
259 20-01-2022 22:30:00 2.8 C 5.1 g/m*3 0.1 C 9.7 km/h
260 20-01-2022 22:35:00 2.8 C 5.1 g/m*3 -0.26 C 11.3 km/h
261 20-01-2022 22:40:00 2.8 C 5.1 g/m*3 1.05 C 6.4 km/h
262 20-01-2022 22:45:00 2.7 C 5.01 g/m*3 -0.38 C 11.3 km/h
263 20-01-2022 22:50:00 2.8 C 5.04 g/m*3 -0.59 C 12.9 km/h
264 20-01-2022 22:55:00 2.8 C 5.04 g/m*3 -0.59 C 12.9 km/h
265 20-01-2022 23:00:00 2.8 C 5.04 g/m*3 0.1 C 9.7 km/h
266 20-01-2022 23:05:00 2.8 C 5.04 g/m*3 1.05 C 6.4 km/h
267 20-01-2022 23:10:00 2.8 C 5.04 g/m*3 1.05 C 6.4 km/h
268 20-01-2022 23:15:00 2.7 C 5.01 g/m*3 0.94 C 6.4 km/h
269 20-01-2022 23:20:00 2.7 C 5.01 g/m*3 -0.02 C 9.7 km/h
270 20-01-2022 23:25:00 2.7 C 5.07 g/m*3 -0.02 C 9.7 km/h
271 20-01-2022 23:30:00 2.7 C 5.07 g/m*3 -0.02 C 9.7 km/h
272 20-01-2022 23:35:00 2.6 C 5.03 g/m*3 -0.14 C 9.7 km/h
273 20-01-2022 23:40:00 2.6 C 5.03 g/m*3 0.82 C 6.4 km/h
274 20-01-2022 23:45:00 2.6 C 5.03 g/m*3 -0.14 C 9.7 km/h
275 20-01-2022 23:50:00 2.6 C 5.03 g/m*3 -0.14 C 9.7 km/h
Sensor: Nr:Datum:Temp:Abs-Feuchte:Windchill:Wind:
Aussen-T/F 276 20-01-2022 23:55:00 2.6 C 5.03 g/m*3 -0.5 C 11.3 km/h

Legende:
   Min
   Max


Maximal/Minimal-Werte vom 20.01.2022 - 20.01.2022

Sensor Min Max Avg
Temp
(Aussen-T/F)
2.6 °C
20-01-2022  23:35:00
4.6 °C
20-01-2022  08:30:00
3.73 °C
Abs-Feuchte
(Aussen-T/F)
4.97 g/m*3
20-01-2022  18:15:00
6.24 g/m*3
20-01-2022  01:00:00
5.47 g/m*3
Windchill
(Aussen-T/F)
-0.75 C
20-01-2022  14:35:00
4.5 C
20-01-2022  01:05:00
1.51 C

Die Daten stammen von einer Davis Vantage Pro 2 Wetter-Station und werden unter Linux mit der Software wview2wettercgi und aufbereitet. Alle Angaben erfolgen ohne Gewähr für ihre Vollständigkeit oder Richtigkeit.
Kontakt: Rainer Krienke krienke@uni-koblenz.de . Meine Webseiten an der Uni Koblenz oder privat.
Version: $Revision: 0.78 $